Miri — DF6613 — position and weather

sailwx.info

Track history (hours):
 
Tides and Currents Weather Stations Pressure Air Temp Water Temp Dewpoint Dewpoint Depression Visibility Wind Speed Wind Dir Waves Ship Positions

Miri

Last reported at 2018-Jun-03 13:20 UTC. Time now 2018-Jun-22 03:41 UTC.
Position N 54°21' E 009°46'.
Warning: this ship's position is 18 days out of date.

Length 15 m.

Type: Sailing vessel. MMSI: 211308180.

Date/timePositionNaut miles runAvg speedWind from/ knotsBaromVisibWave heightAir tempDewpointWater temp
2018-Jun-03 13:20N 54°21' E 009°46'2 6.3
2018-Jun-03 12:59N 54°20' E 009°44'3 5.7
2018-Jun-03 12:30N 54°18' E 009°41'3 5.6
2018-Jun-03 12:00N 54°16' E 009°37'3 6.0
2018-Jun-03 11:29N 54°13' E 009°35'3 6.0
2018-Jun-03 11:00N 54°11' E 009°31'3 6.1
2018-Jun-03 10:28N 54°10' E 009°26'3 6.1
2018-Jun-03 10:00N 54°09' E 009°21'8 5.9
2018-Jun-03 08:37N 54°01' E 009°18'1 6.1
2018-Jun-03 08:29N 54°00' E 009°18'3 5.9
2018-Jun-03 08:00N 53°58' E 009°15'3 5.9
2018-Jun-03 07:28N 53°55' E 009°12'2 4.1
2018-Jun-03 07:00N 53°54' E 009°09'0 0.0
2018-Jun-02 16:08N 53°54' E 009°09'0 0.0
2018-Jun-02 15:50N 53°54' E 009°09'0 0.0
2018-Jun-02 15:26N 53°54' E 009°09'0 0.5
2018-Jun-02 15:00N 53°54' E 009°09'1 1.6
2018-Jun-02 14:30N 53°53' E 009°09'3 7.0
2018-Jun-02 14:00N 53°52' E 009°03'4 7.7
2018-Jun-02 13:30N 53°51' E 008°57'4 7.9
2018-Jun-02 12:59N 53°50' E 008°50'4 7.9
2018-Jun-02 12:30N 53°52' E 008°44'4 8.1
2018-Jun-02 12:00N 53°55' E 008°40'5 9.1
2018-Jun-02 11:29N 53°58' E 008°34'4 9.1
2018-Jun-02 11:00N 53°59' E 008°27'5 9.4
2018-Jun-02 10:30N 53°59' E 008°19'7 8.2
2018-Jun-02 09:38N 53°58' E 008°07'101 5.4
2018-Jun-01 15:08N 53°29' E 005°23'1 3.0
2018-Jun-01 14:57N 53°29' E 005°22'1 3.0
2018-Jun-01 14:29N 53°29' E 005°20'2 4.2
2018-Jun-01 13:59N 53°28' E 005°17'2 4.4
2018-Jun-01 13:30N 53°27' E 005°14'3 5.1
2018-Jun-01 13:00N 53°26' E 005°10'3 5.8
2018-Jun-01 12:30N 53°25' E 005°05'3 5.5
2018-Jun-01 12:00N 53°23' E 005°02'2 4.7
2018-Jun-01 11:30N 53°22' E 004°59'2 3.3
2018-Jun-01 11:00N 53°20' E 005°01'3 5.5
2018-Jun-01 10:30N 53°19' E 005°05'2 3.7
2018-Jun-01 10:00N 53°18' E 005°06'0 0.0
2018-May-31 15:50N 53°18' E 005°05'0 0.0
2018-May-31 15:29N 53°18' E 005°05'0 0.0
2018-May-31 15:00N 53°18' E 005°05'0 0.0
2018-May-31 14:29N 53°18' E 005°05'0 0.1
2018-May-31 14:01N 53°18' E 005°05'1 2.3
2018-May-31 13:30N 53°19' E 005°04'2 4.0
2018-May-31 12:58N 53°19' E 005°01'4 4.8
2018-May-31 12:04N 53°18' E 004°53'0 5.1
2018-May-31 12:00N 53°18' E 004°53'2 3.3
2018-May-31 11:30N 53°18' E 004°50'3 5.1
2018-May-31 10:59N 53°16' E 004°53'2 3.4
2018-May-31 10:29N 53°15' E 004°50'2 4.9
2018-May-31 10:00N 53°14' E 004°46'48 5.4
2018-May-31 01:09N 52°30' E 004°17'1 5.2
2018-May-31 00:57N 52°29' E 004°17'2 5.1
2018-May-31 00:30N 52°26' E 004°18'3 5.0
2018-May-31 00:00N 52°24' E 004°16'2 5.0
2018-May-30 23:30N 52°22' E 004°15'2 4.7
2018-May-30 23:00N 52°19' E 004°14'2 4.5
2018-May-30 22:30N 52°17' E 004°12'2 4.3
2018-May-30 22:00N 52°15' E 004°11'2 4.2
2018-May-30 21:30N 52°13' E 004°11'2 4.1
2018-May-30 21:01N 52°11' E 004°11'2 4.4
2018-May-30 20:30N 52°09' E 004°11'2 4.3
2018-May-30 20:00N 52°07' E 004°10'2 4.2
2018-May-30 19:30N 52°05' E 004°08'2 4.8
2018-May-30 19:00N 52°04' E 004°05'2 4.9
2018-May-30 18:30N 52°02' E 004°03'3 5.2
2018-May-30 18:00N 51°60' E 003°60'2 4.2
2018-May-30 17:30N 51°58' E 003°57'3 6.3
2018-May-30 17:00N 51°57' E 003°53'45 0.9
2018-May-28 13:45N 51°21' E 003°08'2 7.8
2018-May-28 13:30N 51°21' E 003°04'4 7.6
2018-May-28 13:00N 51°20' E 002°59'4 7.5
2018-May-28 12:29N 51°19' E 002°53'3 5.3
2018-May-28 12:00N 51°16' E 002°53'3 5.5
2018-May-28 11:30N 51°14' E 002°51'4 7.6
2018-May-28 11:00N 51°12' E 002°46'4 7.3
2018-May-28 10:29N 51°10' E 002°41'3 7.1
2018-May-28 10:00N 51°09' E 002°36'3 6.5
2018-May-28 09:29N 51°07' E 002°31'3 5.9
2018-May-28 08:59N 51°05' E 002°28'3 6.2
2018-May-28 08:30N 51°04' E 002°23'3 5.3
2018-May-28 08:00N 51°04' E 002°19'3 5.0
2018-May-28 07:22N 51°04' E 002°14'2 4.8
2018-May-28 07:00N 51°03' E 002°11'2 4.6
2018-May-28 06:30N 51°04' E 002°07'2 4.5
2018-May-28 06:00N 51°05' E 002°04'2 3.3
2018-May-28 05:30N 51°06' E 002°02'2 3.9
2018-May-28 05:00N 51°05' E 001°60'2 4.3
2018-May-28 04:30N 51°04' E 001°57'2 4.2
2018-May-28 04:01N 51°03' E 001°54'3 6.2
2018-May-28 03:30N 51°02' E 001°49'3 5.6
2018-May-28 03:00N 51°01' E 001°45'3 5.1
2018-May-28 02:30N 50°60' E 001°41'21 5.8
2018-May-27 22:58N 50°58' E 001°09'4 7.0
2018-May-27 22:27N 50°56' E 001°04'4 6.8
2018-May-27 21:48N 50°54' E 000°58'2 6.3
2018-May-27 21:30N 50°53' E 000°55'4 6.1
2018-May-27 20:52N 50°51' E 000°50'2 6.2
2018-May-27 20:30N 50°50' E 000°46'3 6.5
2018-May-27 19:59N 50°49' E 000°42'3 7.0
2018-May-27 19:30N 50°47' E 000°37'4 7.5
2018-May-27 19:00N 50°45' E 000°32'4 7.7
2018-May-27 18:30N 50°44' E 000°26'4 7.7
2018-May-27 18:00N 50°43' E 000°20'5 7.5
2018-May-27 17:19N 50°43' E 000°12'26 5.4
2018-May-27 12:29N 50°43' W 000°29'3 5.4
2018-May-27 12:00N 50°43' W 000°33'3 4.8
2018-May-27 11:28N 50°42' W 000°37'3 4.3
2018-May-27 10:47N 50°41' W 000°42'2 3.4
2018-May-27 10:17N 50°41' W 000°44'1 2.0
2018-May-27 10:00N 50°41' W 000°45'2 3.9
2018-May-27 09:30N 50°42' W 000°48'2 4.8
2018-May-27 09:00N 50°42' W 000°52'3 5.2
2018-May-27 08:30N 50°43' W 000°56'3 5.8
2018-May-27 08:00N 50°43' W 001°00'3 6.3
2018-May-27 07:30N 50°44' W 001°05'3 6.1
2018-May-27 07:00N 50°45' W 001°09'3 6.9
2018-May-27 06:30N 50°46' W 001°15'4 7.5
2018-May-27 06:00N 50°46' W 001°21'18 0.5
2018-May-25 18:33N 50°37' W 001°46'0 6.1
2018-May-25 18:30N 50°37' W 001°46'4 7.0
2018-May-25 17:58N 50°36' W 001°52'4 7.9
2018-May-25 17:29N 50°34' W 001°58'30 7.6
2018-May-25 13:34N 50°29' W 002°43'0 5.6
2018-May-25 13:30N 50°29' W 002°44'3 5.4
2018-May-25 12:59N 50°28' W 002°48'2 5.0
2018-May-25 12:30N 50°27' W 002°52'2 4.7
2018-May-25 12:00N 50°26' W 002°55'3 4.6
2018-May-25 11:23N 50°25' W 002°59'2 4.6
2018-May-25 11:00N 50°25' W 003°02'2 4.6
2018-May-25 10:30N 50°24' W 003°05'3 5.1
2018-May-25 10:00N 50°24' W 003°09'3 5.1
2018-May-25 09:29N 50°23' W 003°13'3 5.5
2018-May-25 09:00N 50°22' W 003°17'3 5.8
2018-May-25 08:30N 50°22' W 003°22'3 5.3
2018-May-25 08:00N 50°21' W 003°26'3 5.3
2018-May-25 07:30N 50°20' W 003°30'3 4.6
2018-May-25 06:51N 50°21' W 003°34'  
Track history (hours):
 
Tides and Currents Weather Stations Pressure Air Temp Water Temp Dewpoint Dewpoint Depression Visibility Wind Speed Wind Dir Waves Ship Positions

Miri

Last reported at 2018-Jun-03 13:20 UTC. Time now 2018-Jun-22 03:41 UTC.
Position N 54°21' E 009°46'.
Warning: this ship's position is 18 days out of date.

Length 15 m.

Type: Sailing vessel. MMSI: 211308180.

Date/timePositionNaut miles runAvg speedWind from/ knotsBaromVisibWave heightAir tempDewpointWater temp
2018-Jun-03 13:20N 54°21' E 009°46'2 6.3
2018-Jun-03 12:59N 54°20' E 009°44'3 5.7
2018-Jun-03 12:30N 54°18' E 009°41'3 5.6
2018-Jun-03 12:00N 54°16' E 009°37'3 6.0
2018-Jun-03 11:29N 54°13' E 009°35'3 6.0
2018-Jun-03 11:00N 54°11' E 009°31'3 6.1
2018-Jun-03 10:28N 54°10' E 009°26'3 6.1
2018-Jun-03 10:00N 54°09' E 009°21'8 5.9
2018-Jun-03 08:37N 54°01' E 009°18'1 6.1
2018-Jun-03 08:29N 54°00' E 009°18'3 5.9
2018-Jun-03 08:00N 53°58' E 009°15'3 5.9
2018-Jun-03 07:28N 53°55' E 009°12'2 4.1
2018-Jun-03 07:00N 53°54' E 009°09'0 0.0
2018-Jun-02 16:08N 53°54' E 009°09'0 0.0
2018-Jun-02 15:50N 53°54' E 009°09'0 0.0
2018-Jun-02 15:26N 53°54' E 009°09'0 0.5
2018-Jun-02 15:00N 53°54' E 009°09'1 1.6
2018-Jun-02 14:30N 53°53' E 009°09'3 7.0
2018-Jun-02 14:00N 53°52' E 009°03'4 7.7
2018-Jun-02 13:30N 53°51' E 008°57'4 7.9
2018-Jun-02 12:59N 53°50' E 008°50'4 7.9
2018-Jun-02 12:30N 53°52' E 008°44'4 8.1
2018-Jun-02 12:00N 53°55' E 008°40'5 9.1
2018-Jun-02 11:29N 53°58' E 008°34'4 9.1
2018-Jun-02 11:00N 53°59' E 008°27'5 9.4
2018-Jun-02 10:30N 53°59' E 008°19'7 8.2
2018-Jun-02 09:38N 53°58' E 008°07'101 5.4
2018-Jun-01 15:08N 53°29' E 005°23'1 3.0
2018-Jun-01 14:57N 53°29' E 005°22'1 3.0
2018-Jun-01 14:29N 53°29' E 005°20'2 4.2
2018-Jun-01 13:59N 53°28' E 005°17'2 4.4
2018-Jun-01 13:30N 53°27' E 005°14'3 5.1
2018-Jun-01 13:00N 53°26' E 005°10'3 5.8
2018-Jun-01 12:30N 53°25' E 005°05'3 5.5
2018-Jun-01 12:00N 53°23' E 005°02'2 4.7
2018-Jun-01 11:30N 53°22' E 004°59'2 3.3
2018-Jun-01 11:00N 53°20' E 005°01'3 5.5
2018-Jun-01 10:30N 53°19' E 005°05'2 3.7
2018-Jun-01 10:00N 53°18' E 005°06'0 0.0
2018-May-31 15:50N 53°18' E 005°05'0 0.0
2018-May-31 15:29N 53°18' E 005°05'0 0.0
2018-May-31 15:00N 53°18' E 005°05'0 0.0
2018-May-31 14:29N 53°18' E 005°05'0 0.1
2018-May-31 14:01N 53°18' E 005°05'1 2.3
2018-May-31 13:30N 53°19' E 005°04'2 4.0
2018-May-31 12:58N 53°19' E 005°01'4 4.8
2018-May-31 12:04N 53°18' E 004°53'0 5.1
2018-May-31 12:00N 53°18' E 004°53'2 3.3
2018-May-31 11:30N 53°18' E 004°50'3 5.1
2018-May-31 10:59N 53°16' E 004°53'2 3.4
2018-May-31 10:29N 53°15' E 004°50'2 4.9
2018-May-31 10:00N 53°14' E 004°46'48 5.4
2018-May-31 01:09N 52°30' E 004°17'1 5.2
2018-May-31 00:57N 52°29' E 004°17'2 5.1
2018-May-31 00:30N 52°26' E 004°18'3 5.0
2018-May-31 00:00N 52°24' E 004°16'2 5.0
2018-May-30 23:30N 52°22' E 004°15'2 4.7
2018-May-30 23:00N 52°19' E 004°14'2 4.5
2018-May-30 22:30N 52°17' E 004°12'2 4.3
2018-May-30 22:00N 52°15' E 004°11'2 4.2
2018-May-30 21:30N 52°13' E 004°11'2 4.1
2018-May-30 21:01N 52°11' E 004°11'2 4.4
2018-May-30 20:30N 52°09' E 004°11'2 4.3
2018-May-30 20:00N 52°07' E 004°10'2 4.2
2018-May-30 19:30N 52°05' E 004°08'2 4.8
2018-May-30 19:00N 52°04' E 004°05'2 4.9
2018-May-30 18:30N 52°02' E 004°03'3 5.2
2018-May-30 18:00N 51°60' E 003°60'2 4.2
2018-May-30 17:30N 51°58' E 003°57'3 6.3
2018-May-30 17:00N 51°57' E 003°53'45 0.9
2018-May-28 13:45N 51°21' E 003°08'2 7.8
2018-May-28 13:30N 51°21' E 003°04'4 7.6
2018-May-28 13:00N 51°20' E 002°59'4 7.5
2018-May-28 12:29N 51°19' E 002°53'3 5.3
2018-May-28 12:00N 51°16' E 002°53'3 5.5
2018-May-28 11:30N 51°14' E 002°51'4 7.6
2018-May-28 11:00N 51°12' E 002°46'4 7.3
2018-May-28 10:29N 51°10' E 002°41'3 7.1
2018-May-28 10:00N 51°09' E 002°36'3 6.5
2018-May-28 09:29N 51°07' E 002°31'3 5.9
2018-May-28 08:59N 51°05' E 002°28'3 6.2
2018-May-28 08:30N 51°04' E 002°23'3 5.3
2018-May-28 08:00N 51°04' E 002°19'3 5.0
2018-May-28 07:22N 51°04' E 002°14'2 4.8
2018-May-28 07:00N 51°03' E 002°11'2 4.6
2018-May-28 06:30N 51°04' E 002°07'2 4.5
2018-May-28 06:00N 51°05' E 002°04'2 3.3
2018-May-28 05:30N 51°06' E 002°02'2 3.9
2018-May-28 05:00N 51°05' E 001°60'2 4.3
2018-May-28 04:30N 51°04' E 001°57'2 4.2
2018-May-28 04:01N 51°03' E 001°54'3 6.2
2018-May-28 03:30N 51°02' E 001°49'3 5.6
2018-May-28 03:00N 51°01' E 001°45'3 5.1
2018-May-28 02:30N 50°60' E 001°41'21 5.8
2018-May-27 22:58N 50°58' E 001°09'4 7.0
2018-May-27 22:27N 50°56' E 001°04'4 6.8
2018-May-27 21:48N 50°54' E 000°58'2 6.3
2018-May-27 21:30N 50°53' E 000°55'4 6.1
2018-May-27 20:52N 50°51' E 000°50'2 6.2
2018-May-27 20:30N 50°50' E 000°46'3 6.5
2018-May-27 19:59N 50°49' E 000°42'3 7.0
2018-May-27 19:30N 50°47' E 000°37'4 7.5
2018-May-27 19:00N 50°45' E 000°32'4 7.7
2018-May-27 18:30N 50°44' E 000°26'4 7.7
2018-May-27 18:00N 50°43' E 000°20'5 7.5
2018-May-27 17:19N 50°43' E 000°12'26 5.4
2018-May-27 12:29N 50°43' W 000°29'3 5.4
2018-May-27 12:00N 50°43' W 000°33'3 4.8
2018-May-27 11:28N 50°42' W 000°37'3 4.3
2018-May-27 10:47N 50°41' W 000°42'2 3.4
2018-May-27 10:17N 50°41' W 000°44'1 2.0
2018-May-27 10:00N 50°41' W 000°45'2 3.9
2018-May-27 09:30N 50°42' W 000°48'2 4.8
2018-May-27 09:00N 50°42' W 000°52'3 5.2
2018-May-27 08:30N 50°43' W 000°56'3 5.8
2018-May-27 08:00N 50°43' W 001°00'3 6.3
2018-May-27 07:30N 50°44' W 001°05'3 6.1
2018-May-27 07:00N 50°45' W 001°09'3 6.9
2018-May-27 06:30N 50°46' W 001°15'4 7.5
2018-May-27 06:00N 50°46' W 001°21'18 0.5
2018-May-25 18:33N 50°37' W 001°46'0 6.1
2018-May-25 18:30N 50°37' W 001°46'4 7.0
2018-May-25 17:58N 50°36' W 001°52'4 7.9
2018-May-25 17:29N 50°34' W 001°58'30 7.6
2018-May-25 13:34N 50°29' W 002°43'0 5.6
2018-May-25 13:30N 50°29' W 002°44'3 5.4
2018-May-25 12:59N 50°28' W 002°48'2 5.0
2018-May-25 12:30N 50°27' W 002°52'2 4.7
2018-May-25 12:00N 50°26' W 002°55'3 4.6
2018-May-25 11:23N 50°25' W 002°59'2 4.6
2018-May-25 11:00N 50°25' W 003°02'2 4.6
2018-May-25 10:30N 50°24' W 003°05'3 5.1
2018-May-25 10:00N 50°24' W 003°09'3 5.1
2018-May-25 09:29N 50°23' W 003°13'3 5.5
2018-May-25 09:00N 50°22' W 003°17'3 5.8
2018-May-25 08:30N 50°22' W 003°22'3 5.3
2018-May-25 08:00N 50°21' W 003°26'3 5.3
2018-May-25 07:30N 50°20' W 003°30'3 4.6
2018-May-25 06:51N 50°21' W 003°34'  

Dump ship's entire track history